Time;durP1;ratioP1;P1;durP2;ratioP2;P2;SDS_P1;SDS_P2;PMS_P1;PMS_P2;Temp;Humidity;BMP_temperature;BMP_pressure;BME280_temperature;BME280_humidity;BME280_pressure;Samples;Min_cycle;Max_cycle;Signal;HPM_P1;HPM_P2
2021/07/06 00:01:51;;;;;;;18.90;8.75;;;21.30;80.30;;;;;;5115548;28;20024;-78
2021/07/06 00:04:17;;;;;;;15.25;7.70;;;21.30;80.40;;;;;;5118249;28;20552;-78
2021/07/06 00:06:43;;;;;;;14.50;8.30;;;21.30;80.40;;;;;;5119514;28;20032;-78
2021/07/06 00:09:09;;;;;;;19.98;8.35;;;21.30;80.40;;;;;;5119306;28;20062;-78
2021/07/06 00:11:35;;;;;;;15.65;7.60;;;21.30;80.40;;;;;;5112207;28;20436;-78
2021/07/06 00:14:00;;;;;;;17.00;8.13;;;21.30;80.60;;;;;;5112148;28;20043;-78
2021/07/06 00:16:26;;;;;;;12.55;7.40;;;21.30;80.60;;;;;;5111899;28;20106;-78
2021/07/06 00:18:52;;;;;;;12.70;7.65;;;21.30;80.70;;;;;;5114123;28;20051;-78
2021/07/06 00:21:18;;;;;;;11.77;8.10;;;21.30;80.80;;;;;;5115947;28;20035;-78
2021/07/06 00:23:44;;;;;;;18.20;8.32;;;21.30;80.80;;;;;;5113626;28;20028;-78
2021/07/06 00:26:09;;;;;;;20.23;8.35;;;21.30;80.80;;;;;;5121786;28;20471;-79
2021/07/06 00:28:35;;;;;;;11.70;7.35;;;21.30;80.90;;;;;;5111835;28;20024;-79
2021/07/06 00:31:01;;;;;;;14.85;8.18;;;21.20;80.70;;;;;;5113174;28;20039;-79
2021/07/06 00:33:30;;;;;;;15.20;7.03;;;21.20;80.70;;;;;;5108234;28;20023;-78
2021/07/06 00:35:58;;;;;;;18.77;7.00;;;21.20;80.60;;;;;;5119522;28;20034;-79
2021/07/06 00:38:26;;;;;;;11.32;6.85;;;21.20;80.50;;;;;;5111334;28;20115;-79
2021/07/06 00:40:57;;;;;;;11.30;6.97;;;21.20;80.40;;;;;;5104758;28;20045;-78
2021/07/06 00:43:23;;;;;;;9.88;7.40;;;21.20;80.60;;;;;;5111505;28;20031;-79
2021/07/06 00:45:50;;;;;;;18.08;7.53;;;21.20;81.30;;;;;;5112262;28;20490;-79
2021/07/06 00:48:16;;;;;;;11.98;7.93;;;21.20;80.80;;;;;;5097919;28;20162;-79
2021/07/06 00:50:42;;;;;;;14.13;7.93;;;21.20;81.00;;;;;;5112425;28;20166;-79
2021/07/06 00:53:08;;;;;;;12.98;7.85;;;21.20;81.00;;;;;;5096954;28;20471;-79
2021/07/06 00:55:33;;;;;;;13.50;7.13;;;21.20;81.00;;;;;;5097668;28;20104;-79
2021/07/06 00:58:00;;;;;;;15.68;8.07;;;21.20;80.80;;;;;;5112420;28;20039;-79
2021/07/06 01:00:27;;;;;;;10.75;7.95;;;21.20;80.80;;;;;;5110644;28;20148;-79
2021/07/06 01:02:53;;;;;;;17.88;8.43;;;21.20;80.80;;;;;;5111846;28;20508;-79
2021/07/06 01:05:22;;;;;;;12.60;8.27;;;21.20;80.80;;;;;;5112038;28;20034;-79
2021/07/06 01:07:49;;;;;;;14.38;8.02;;;21.20;80.90;;;;;;5120312;27;20126;-78
2021/07/06 01:10:15;;;;;;;17.80;8.65;;;21.20;80.90;;;;;;5121163;27;20077;-79
2021/07/06 01:12:42;;;;;;;14.55;8.40;;;21.20;81.00;;;;;;5116860;27;20514;-79
2021/07/06 01:15:18;;;;;;;15.90;8.20;;;21.20;81.10;;;;;;5116034;27;20498;-78
2021/07/06 01:17:45;;;;;;;14.02;8.02;;;21.20;81.10;;;;;;5113600;28;20490;-79
2021/07/06 01:20:15;;;;;;;11.00;8.43;;;21.20;80.80;;;;;;5114543;28;20063;-79
2021/07/06 01:22:41;;;;;;;13.48;8.43;;;21.20;80.90;;;;;;5116847;27;20028;-79
2021/07/06 01:25:10;;;;;;;21.83;9.88;;;21.10;80.60;;;;;;5123311;27;20030;-79
2021/07/06 01:27:36;;;;;;;16.23;7.72;;;21.10;80.60;;;;;;5116151;27;20053;-79
2021/07/06 01:30:04;;;;;;;17.13;8.55;;;21.10;80.40;;;;;;5114726;27;20027;-79
2021/07/06 01:32:30;;;;;;;14.63;8.35;;;21.10;80.40;;;;;;5108006;28;20035;-79
2021/07/06 01:34:59;;;;;;;18.42;8.15;;;21.10;80.40;;;;;;5108409;27;20085;-79
2021/07/06 01:37:25;;;;;;;17.58;8.32;;;21.10;80.50;;;;;;5113918;28;20038;-78
2021/07/06 01:39:51;;;;;;;14.23;7.97;;;21.00;80.50;;;;;;5111296;27;20483;-78
2021/07/06 01:42:21;;;;;;;16.20;7.88;;;21.00;80.50;;;;;;5114813;28;20107;-78
2021/07/06 01:44:47;;;;;;;15.13;8.20;;;21.00;80.60;;;;;;5099241;28;20034;-85
2021/07/06 01:47:16;;;;;;;16.25;8.50;;;21.00;80.70;;;;;;5120004;27;20114;-85
2021/07/06 01:49:42;;;;;;;18.35;7.90;;;21.00;80.80;;;;;;5116678;27;20058;-78
2021/07/06 01:52:08;;;;;;;11.60;7.53;;;21.00;80.80;;;;;;5105185;27;20060;-79
2021/07/06 01:54:33;;;;;;;12.80;8.23;;;21.00;80.80;;;;;;5114343;28;20036;-78
2021/07/06 01:56:59;;;;;;;10.60;7.32;;;20.90;80.80;;;;;;5113507;28;20023;-78
2021/07/06 01:59:25;;;;;;;17.42;7.50;;;21.00;81.00;;;;;;5126609;27;20043;-78
2021/07/06 02:01:50;;;;;;;10.48;7.53;;;21.00;81.00;;;;;;5135783;27;20015;-78
2021/07/06 02:04:16;;;;;;;15.77;7.68;;;21.00;81.00;;;;;;5130493;27;20105;-79
2021/07/06 02:06:42;;;;;;;30.33;9.18;;;21.00;81.10;;;;;;5103098;27;20458;-78
2021/07/06 02:09:08;;;;;;;11.93;7.68;;;20.90;81.20;;;;;;5118993;27;20023;-78
2021/07/06 02:11:34;;;;;;;16.75;8.10;;;20.90;81.30;;;;;;5114159;28;20466;-79
2021/07/06 02:14:01;;;;;;;21.48;8.05;;;20.90;81.40;;;;;;5127407;27;20060;-79
2021/07/06 02:16:29;;;;;;;12.77;7.15;;;20.90;81.50;;;;;;5100904;27;20159;-78
2021/07/06 02:18:56;;;;;;;11.18;7.13;;;20.90;81.60;;;;;;5115567;27;20143;-78
2021/07/06 02:21:21;;;;;;;15.90;7.70;;;20.90;81.70;;;;;;5116532;27;20094;-79
2021/07/06 02:23:49;;;;;;;13.73;6.90;;;20.90;81.80;;;;;;5114036;28;20088;-79
2021/07/06 02:26:14;;;;;;;15.90;7.18;;;20.90;82.00;;;;;;5104824;27;20479;-78
2021/07/06 02:28:41;;;;;;;16.73;6.55;;;20.90;82.00;;;;;;5114299;28;20031;-78
2021/07/06 02:31:07;;;;;;;10.52;7.20;;;20.90;82.00;;;;;;5124303;27;20035;-79
2021/07/06 02:33:34;;;;;;;12.43;6.55;;;20.90;82.20;;;;;;5112740;27;20038;-79
2021/07/06 02:36:04;;;;;;;9.95;6.70;;;20.80;82.20;;;;;;5114680;27;20051;-79
2021/07/06 02:38:32;;;;;;;13.52;6.95;;;20.80;82.40;;;;;;5119726;27;20044;-78
2021/07/06 02:40:58;;;;;;;12.90;6.78;;;20.80;82.40;;;;;;5104918;27;20488;-79
2021/07/06 02:43:24;;;;;;;13.63;6.68;;;20.80;82.60;;;;;;5117403;27;20027;-79
2021/07/06 02:45:50;;;;;;;10.93;6.97;;;20.80;82.70;;;;;;5113080;27;20470;-78
2021/07/06 02:48:15;;;;;;;10.90;6.28;;;20.80;82.80;;;;;;5112651;27;20067;-78
2021/07/06 02:50:41;;;;;;;14.75;6.68;;;20.80;82.90;;;;;;5113660;27;20019;-78
2021/07/06 02:53:08;;;;;;;12.40;7.40;;;20.80;83.00;;;;;;5120419;27;20031;-79
2021/07/06 02:55:34;;;;;;;10.68;6.53;;;20.70;83.10;;;;;;5121087;27;20068;-78
2021/07/06 02:58:02;;;;;;;10.55;5.57;;;20.80;83.30;;;;;;5109305;27;20393;-81
2021/07/06 03:00:29;;;;;;;15.55;6.22;;;20.80;83.40;;;;;;5112949;27;20035;-80
2021/07/06 03:02:58;;;;;;;15.52;6.30;;;20.80;83.50;;;;;;5113250;28;20443;-78
2021/07/06 03:05:26;;;;;;;9.25;5.90;;;20.70;83.50;;;;;;5125028;27;20176;-80
2021/07/06 03:07:53;;;;;;;11.32;5.63;;;20.80;83.70;;;;;;5111568;28;20039;-78
2021/07/06 03:10:24;;;;;;;10.45;7.65;;;20.80;83.90;;;;;;5112649;27;20546;-79
2021/07/06 03:12:51;;;;;;;11.85;6.10;;;20.70;83.90;;;;;;5113172;28;20098;-80
2021/07/06 03:15:20;;;;;;;10.40;5.93;;;20.70;83.80;;;;;;5101684;28;20024;-73
2021/07/06 03:17:46;;;;;;;8.57;5.43;;;20.80;84.00;;;;;;5112461;28;20027;-71
2021/07/06 03:20:17;;;;;;;7.13;5.38;;;20.70;84.10;;;;;;5103155;28;20023;-72
2021/07/06 03:22:43;;;;;;;12.23;6.05;;;20.70;84.00;;;;;;5111979;28;20112;-71
2021/07/06 03:25:11;;;;;;;9.30;4.65;;;20.70;84.10;;;;;;5113352;28;20059;-72
2021/07/06 03:27:38;;;;;;;8.35;4.60;;;20.70;84.20;;;;;;5110872;28;20027;-80
2021/07/06 03:30:10;;;;;;;6.40;4.68;;;20.70;83.90;;;;;;5113195;28;20080;-78
2021/07/06 03:32:36;;;;;;;8.13;5.30;;;20.70;84.10;;;;;;5112191;28;20387;-77
2021/07/06 03:35:07;;;;;;;8.35;5.07;;;20.70;84.10;;;;;;5104759;28;20031;-77
2021/07/06 03:37:33;;;;;;;10.05;5.10;;;20.70;84.20;;;;;;5106776;28;20109;-77
2021/07/06 03:40:08;;;;;;;12.77;5.55;;;20.70;84.30;;;;;;5107234;28;20051;-77
2021/07/06 03:42:35;;;;;;;9.68;5.63;;;20.70;84.30;;;;;;5118281;27;20076;-77
2021/07/06 03:45:01;;;;;;;8.48;4.82;;;20.70;84.50;;;;;;5113024;28;20035;-77
2021/07/06 03:47:27;;;;;;;8.35;4.88;;;20.70;84.60;;;;;;5120805;27;20032;-77
2021/07/06 03:49:52;;;;;;;7.60;4.82;;;20.60;84.70;;;;;;5106317;28;20036;-77
2021/07/06 03:52:21;;;;;;;12.27;4.63;;;20.70;84.60;;;;;;5115629;27;20028;-77
2021/07/06 03:54:47;;;;;;;9.35;4.90;;;20.60;84.80;;;;;;5115312;27;20040;-78
2021/07/06 03:57:12;;;;;;;8.18;4.85;;;20.60;84.60;;;;;;5112762;27;20093;-77
2021/07/06 03:59:38;;;;;;;6.57;4.20;;;20.60;84.80;;;;;;5121746;27;20092;-78
2021/07/06 04:02:04;;;;;;;7.10;4.00;;;20.60;84.50;;;;;;5113848;27;20065;-77
2021/07/06 04:04:29;;;;;;;5.97;4.20;;;20.70;84.40;;;;;;5120027;28;20076;-78
2021/07/06 04:06:55;;;;;;;7.40;3.92;;;20.70;84.50;;;;;;5129722;28;20386;-75
2021/07/06 04:09:20;;;;;;;11.07;5.95;;;20.70;84.90;;;;;;5111565;28;20054;-75
2021/07/06 04:11:46;;;;;;;6.72;3.95;;;20.70;85.10;;;;;;5117069;28;20117;-75
2021/07/06 04:14:12;;;;;;;6.63;4.40;;;20.70;85.20;;;;;;5117134;28;20092;-75
2021/07/06 04:16:39;;;;;;;10.75;4.30;;;20.60;85.50;;;;;;5119553;28;20131;-75
2021/07/06 04:19:07;;;;;;;5.28;3.78;;;20.60;85.80;;;;;;5115608;28;20046;-75
2021/07/06 04:21:34;;;;;;;9.38;4.85;;;20.60;85.80;;;;;;5116017;28;20032;-75
2021/07/06 04:24:01;;;;;;;11.35;4.00;;;20.70;85.90;;;;;;5114611;28;20098;-75
2021/07/06 04:26:26;;;;;;;6.20;3.85;;;20.70;86.10;;;;;;5115818;28;20508;-75
2021/07/06 04:28:52;;;;;;;6.70;4.43;;;20.70;86.20;;;;;;5115253;28;20043;-75
2021/07/06 04:31:18;;;;;;;9.73;4.15;;;20.70;86.40;;;;;;5106312;28;20027;-75
2021/07/06 04:33:43;;;;;;;3.67;2.85;;;20.60;86.60;;;;;;5113350;28;20490;-75
2021/07/06 04:36:09;;;;;;;6.78;4.43;;;20.70;86.30;;;;;;5114076;28;20462;-75
2021/07/06 04:38:34;;;;;;;5.80;3.92;;;20.70;86.30;;;;;;5115219;28;20036;-77
2021/07/06 04:41:00;;;;;;;8.10;3.33;;;20.70;86.30;;;;;;5112199;28;20027;-76
2021/07/06 04:43:26;;;;;;;6.18;3.95;;;20.70;86.80;;;;;;5113695;28;20032;-77
2021/07/06 04:45:51;;;;;;;6.75;3.80;;;20.70;86.30;;;;;;5116617;27;20387;-77
2021/07/06 04:48:17;;;;;;;5.45;3.33;;;20.70;86.40;;;;;;5115347;28;20076;-76
2021/07/06 04:50:43;;;;;;;6.18;3.30;;;20.70;85.90;;;;;;5103623;27;20247;-77
2021/07/06 04:53:09;;;;;;;13.77;3.58;;;20.70;85.90;;;;;;5114946;28;20023;-76
2021/07/06 04:55:35;;;;;;;4.47;3.00;;;20.70;86.40;;;;;;5120620;28;20121;-76
2021/07/06 04:58:04;;;;;;;6.85;3.38;;;20.70;86.20;;;;;;5122484;27;20042;-76
2021/07/06 05:00:30;;;;;;;6.05;3.30;;;20.70;86.20;;;;;;5121820;27;20076;-76
2021/07/06 05:02:56;;;;;;;12.43;3.40;;;20.70;86.10;;;;;;5123952;28;20028;-76
2021/07/06 05:05:22;;;;;;;8.00;3.35;;;20.80;86.30;;;;;;5123559;27;20027;-76
2021/07/06 05:07:48;;;;;;;7.30;3.90;;;20.80;86.30;;;;;;5125398;27;20030;-77
2021/07/06 05:10:13;;;;;;;3.75;3.08;;;20.80;86.70;;;;;;5106373;27;20039;-77
2021/07/06 05:12:43;;;;;;;4.82;2.72;;;20.80;86.70;;;;;;5116460;28;20030;-76
2021/07/06 05:15:09;;;;;;;4.38;2.95;;;20.80;86.90;;;;;;5118190;28;20047;-76
2021/07/06 05:17:34;;;;;;;6.85;3.45;;;20.80;86.50;;;;;;5116056;28;20134;-73
2021/07/06 05:20:00;;;;;;;8.73;4.07;;;20.90;86.70;;;;;;5116167;28;20046;-78
2021/07/06 05:22:26;;;;;;;7.40;2.83;;;20.90;86.70;;;;;;5118420;27;20386;-72
2021/07/06 05:24:52;;;;;;;7.55;3.08;;;20.90;87.00;;;;;;5112535;27;20039;-71
2021/07/06 05:27:18;;;;;;;8.40;2.72;;;20.90;86.70;;;;;;5121668;27;20492;-71
2021/07/06 05:29:44;;;;;;;3.42;2.33;;;20.90;86.70;;;;;;5123160;27;20031;-70
2021/07/06 05:32:11;;;;;;;5.03;2.50;;;20.90;86.50;;;;;;5131597;27;20040;-70
2021/07/06 05:34:39;;;;;;;3.60;2.53;;;21.00;86.80;;;;;;5124569;27;20401;-71
2021/07/06 05:37:05;;;;;;;5.38;2.75;;;21.00;86.50;;;;;;5130480;27;20014;-71
2021/07/06 05:39:30;;;;;;;4.60;2.88;;;21.00;86.80;;;;;;5120569;27;20110;-70
2021/07/06 05:42:05;;;;;;;3.00;2.00;;;21.00;86.60;;;;;;5107359;27;20031;-70
2021/07/06 05:44:31;;;;;;;7.35;2.45;;;21.10;86.80;;;;;;5119885;27;20026;-70
2021/07/06 05:46:57;;;;;;;5.40;2.20;;;21.10;86.70;;;;;;5130768;27;20022;-70
2021/07/06 05:49:28;;;;;;;2.65;1.60;;;21.10;86.80;;;;;;5121553;27;20024;-70
2021/07/06 05:51:53;;;;;;;6.50;1.98;;;21.20;86.50;;;;;;5126101;27;20046;-70
2021/07/06 05:54:19;;;;;;;6.95;2.10;;;21.20;86.90;;;;;;5121008;27;20553;-72
2021/07/06 05:56:45;;;;;;;2.63;1.90;;;21.20;87.20;;;;;;5119806;28;20026;-74
2021/07/06 05:59:10;;;;;;;1.88;1.45;;;21.20;86.90;;;;;;5122917;27;20494;-72
2021/07/06 06:01:36;;;;;;;10.52;1.75;;;21.30;85.70;;;;;;5122832;27;20065;-72
2021/07/06 06:04:01;;;;;;;5.47;1.55;;;21.30;85.70;;;;;;5121840;27;20047;-72
2021/07/06 06:06:30;;;;;;;5.28;1.70;;;21.30;86.00;;;;;;5121834;27;20028;-72
2021/07/06 06:08:56;;;;;;;2.55;1.40;;;21.30;86.20;;;;;;5116279;27;20438;-72
2021/07/06 06:11:22;;;;;;;5.50;1.73;;;21.30;86.40;;;;;;5100206;28;20023;-72
2021/07/06 06:13:48;;;;;;;1.85;1.45;;;21.40;86.70;;;;;;5121659;27;20034;-72
2021/07/06 06:16:14;;;;;;;5.97;1.42;;;21.40;86.50;;;;;;5117594;27;20024;-72
2021/07/06 06:18:39;;;;;;;3.75;1.23;;;21.40;86.30;;;;;;5125280;27;20043;-72
2021/07/06 06:21:05;;;;;;;4.13;1.35;;;21.40;85.80;;;;;;5121381;27;20023;-72
2021/07/06 06:23:31;;;;;;;2.30;1.17;;;21.50;85.20;;;;;;5128477;27;20469;-72
2021/07/06 06:25:57;;;;;;;2.42;1.25;;;21.40;84.70;;;;;;5121069;27;20023;-77
2021/07/06 06:28:23;;;;;;;2.20;1.30;;;21.50;84.30;;;;;;5121428;27;20031;-77
2021/07/06 06:30:49;;;;;;;8.00;1.30;;;21.50;84.70;;;;;;5124310;27;20027;-77
2021/07/06 06:33:14;;;;;;;1.85;0.77;;;21.50;84.50;;;;;;5095447;28;20773;-77
2021/07/06 06:35:41;;;;;;;2.03;1.38;;;21.50;84.20;;;;;;5123894;27;20370;-72
2021/07/06 06:38:07;;;;;;;2.53;1.45;;;21.50;84.10;;;;;;5114803;27;20176;-72
2021/07/06 06:40:32;;;;;;;5.03;1.27;;;21.50;84.30;;;;;;5108009;27;20114;-79
2021/07/06 06:42:58;;;;;;;3.13;1.50;;;21.50;84.50;;;;;;5111293;28;20073;-79
2021/07/06 06:45:24;;;;;;;2.25;1.40;;;21.50;84.30;;;;;;5107334;27;20043;-79
2021/07/06 06:47:50;;;;;;;0.73;0.73;;;21.50;83.50;;;;;;5110986;27;20490;-79
2021/07/06 06:50:16;;;;;;;4.22;2.40;;;21.40;82.80;;;;;;5096711;28;20023;-79
2021/07/06 06:52:42;;;;;;;4.63;1.65;;;21.50;83.20;;;;;;5112534;28;20019;-79
2021/07/06 06:55:09;;;;;;;2.50;1.60;;;21.50;83.10;;;;;;5113158;28;20077;-79
2021/07/06 06:57:35;;;;;;;7.93;1.40;;;21.40;83.60;;;;;;5102889;28;20476;-79
2021/07/06 07:00:04;;;;;;;4.20;1.73;;;21.40;83.80;;;;;;5113956;27;20035;-80
2021/07/06 07:02:30;;;;;;;3.83;1.50;;;21.50;84.20;;;;;;5117763;27;20840;-79
2021/07/06 07:04:56;;;;;;;2.60;1.35;;;21.50;84.10;;;;;;5138662;28;20039;-78
2021/07/06 07:07:24;;;;;;;3.03;1.20;;;21.50;83.60;;;;;;5117723;28;20019;-78
2021/07/06 07:09:50;;;;;;;2.72;1.42;;;21.50;84.00;;;;;;5121496;28;20080;-79
2021/07/06 07:12:17;;;;;;;2.58;1.42;;;21.50;83.80;;;;;;5107008;28;20019;-79
2021/07/06 07:14:43;;;;;;;2.30;1.40;;;21.50;83.90;;;;;;5096890;28;20108;-79
2021/07/06 07:17:09;;;;;;;2.45;1.42;;;21.60;84.20;;;;;;5110415;28;20024;-79
2021/07/06 07:19:36;;;;;;;3.38;1.65;;;21.60;84.30;;;;;;5094815;28;20035;-79
2021/07/06 07:22:06;;;;;;;2.30;1.50;;;21.60;84.10;;;;;;5112535;28;20108;-79
2021/07/06 07:24:33;;;;;;;5.28;1.50;;;21.60;84.20;;;;;;5113791;28;20035;-79
2021/07/06 07:26:59;;;;;;;1.40;1.10;;;21.60;84.00;;;;;;5112896;28;20058;-80
2021/07/06 07:29:25;;;;;;;3.78;1.48;;;21.60;84.20;;;;;;5111648;28;20100;-79
2021/07/06 07:31:54;;;;;;;3.22;1.20;;;21.60;83.80;;;;;;5115858;27;20036;-79
2021/07/06 07:34:20;;;;;;;1.20;1.10;;;21.60;83.60;;;;;;5104095;27;20394;-78
2021/07/06 07:36:47;;;;;;;4.03;1.40;;;21.60;83.80;;;;;;5112994;28;20110;-79
2021/07/06 07:39:13;;;;;;;3.90;1.02;;;21.60;84.30;;;;;;5100099;27;20044;-79
2021/07/06 07:41:38;;;;;;;3.38;1.58;;;21.70;84.50;;;;;;5109826;28;20023;-79
2021/07/06 07:44:07;;;;;;;1.40;1.20;;;21.80;84.50;;;;;;5103581;27;20040;-79
2021/07/06 07:46:32;;;;;;;1.40;1.30;;;21.80;84.20;;;;;;5111912;28;20024;-79
2021/07/06 07:48:58;;;;;;;2.15;1.08;;;21.80;84.00;;;;;;5102555;28;20455;-79
2021/07/06 07:51:24;;;;;;;3.03;1.35;;;21.80;83.60;;;;;;5109633;28;20518;-79
2021/07/06 07:53:50;;;;;;;3.75;1.58;;;21.80;83.60;;;;;;5099529;28;20474;-79
2021/07/06 07:56:15;;;;;;;12.00;1.52;;;21.80;83.70;;;;;;5112895;28;20444;-79
2021/07/06 07:58:44;;;;;;;2.67;1.40;;;21.90;83.90;;;;;;5113036;28;20063;-79
2021/07/06 08:01:10;;;;;;;2.80;1.55;;;21.90;83.50;;;;;;5111842;28;20462;-79
2021/07/06 08:03:36;;;;;;;2.72;1.42;;;21.90;83.20;;;;;;5113360;28;20031;-79
2021/07/06 08:06:02;;;;;;;5.53;1.50;;;21.90;82.80;;;;;;5106914;28;20023;-79
2021/07/06 08:08:28;;;;;;;3.75;1.60;;;21.90;83.20;;;;;;5093579;28;20498;-79
2021/07/06 08:10:56;;;;;;;2.45;1.33;;;21.90;83.00;;;;;;5116037;28;20024;-79
2021/07/06 08:13:23;;;;;;;5.13;1.52;;;22.00;82.90;;;;;;5128995;28;20027;-79
2021/07/06 08:15:49;;;;;;;3.28;1.30;;;22.00;82.80;;;;;;5116398;28;20028;-79
2021/07/06 08:18:16;;;;;;;1.55;1.30;;;22.00;82.70;;;;;;5115102;28;20118;-79
2021/07/06 08:20:42;;;;;;;2.67;1.20;;;21.90;82.70;;;;;;5117174;28;20024;-79
2021/07/06 08:23:08;;;;;;;1.08;0.75;;;22.00;82.80;;;;;;5122740;28;20550;-78
2021/07/06 08:25:34;;;;;;;1.42;1.27;;;22.00;82.40;;;;;;5130322;27;20035;-79
2021/07/06 08:27:59;;;;;;;3.13;1.25;;;22.00;82.60;;;;;;5115056;28;20462;-74
2021/07/06 08:30:25;;;;;;;1.35;0.68;;;21.90;82.40;;;;;;5119653;27;20019;-74
2021/07/06 08:32:50;;;;;;;6.40;0.77;;;22.00;82.70;;;;;;5122438;27;20103;-74
2021/07/06 08:35:16;;;;;;;2.80;1.60;;;22.00;82.90;;;;;;5121348;27;20561;-72
2021/07/06 08:37:42;;;;;;;10.07;1.10;;;22.00;83.80;;;;;;5109159;27;20027;-73
2021/07/06 08:40:09;;;;;;;1.00;0.65;;;22.00;83.40;;;;;;5117031;27;20043;-72
2021/07/06 08:42:38;;;;;;;9.45;1.77;;;22.00;83.30;;;;;;5121254;27;20389;-72
2021/07/06 08:45:05;;;;;;;0.68;0.60;;;22.00;84.00;;;;;;5119585;27;20016;-74
2021/07/06 08:47:31;;;;;;;2.17;1.65;;;22.00;83.40;;;;;;5120011;27;20020;-74
2021/07/06 08:49:57;;;;;;;5.10;1.48;;;22.00;84.20;;;;;;5123795;27;20032;-74
2021/07/06 08:52:23;;;;;;;1.77;0.80;;;22.10;84.00;;;;;;5117241;27;20030;-73
2021/07/06 08:54:52;;;;;;;14.23;1.23;;;22.10;83.70;;;;;;5111587;28;20076;-73
2021/07/06 08:57:21;;;;;;;0.80;0.80;;;22.10;84.20;;;;;;5111584;27;20107;-73
2021/07/06 08:59:48;;;;;;;5.15;1.48;;;22.10;83.80;;;;;;5127892;27;20058;-73
2021/07/06 09:02:14;;;;;;;2.67;1.40;;;22.10;84.30;;;;;;5104134;27;20106;-74
2021/07/06 09:04:43;;;;;;;1.90;1.38;;;22.20;84.30;;;;;;5117050;27;20126;-74
2021/07/06 09:07:09;;;;;;;1.52;1.27;;;22.20;84.40;;;;;;5127037;27;20407;-74
2021/07/06 09:09:38;;;;;;;1.80;1.20;;;22.20;84.00;;;;;;5121539;27;20043;-74
2021/07/06 09:12:05;;;;;;;7.25;1.73;;;22.30;84.00;;;;;;5121357;27;20390;-74
2021/07/06 09:14:34;;;;;;;2.85;1.20;;;22.40;84.10;;;;;;5123209;27;20027;-74
2021/07/06 09:17:12;;;;;;;3.53;1.33;;;22.30;83.80;;;;;;5123741;27;20027;-74
2021/07/06 09:19:41;;;;;;;4.22;1.40;;;22.30;83.80;;;;;;5111444;27;20486;-73
2021/07/06 09:22:26;;;;;;;6.35;1.92;;;22.40;84.00;;;;;;5117686;27;20456;-74
2021/07/06 09:25:09;;;;;;;2.55;1.40;;;22.40;84.50;;;;;;5117499;27;20020;-73
2021/07/06 09:27:36;;;;;;;;;;;22.50;83.90;;;;;;5114631;27;20058;-74
2021/07/06 09:30:22;;;;;;;2.40;1.33;;;22.50;83.30;;;;;;5124980;27;19907;-74
2021/07/06 09:32:51;;;;;;;1.38;1.02;;;22.60;83.20;;;;;;5119824;27;20031;-74
2021/07/06 09:35:26;;;;;;;1.83;1.05;;;22.60;83.10;;;;;;5120258;27;20023;-75
2021/07/06 09:37:54;;;;;;;3.05;0.95;;;22.60;83.40;;;;;;5119824;27;20019;-75
2021/07/06 09:40:34;;;;;;;7.43;1.50;;;22.60;83.10;;;;;;5119098;27;20084;-78
2021/07/06 09:43:17;;;;;;;3.00;1.50;;;22.70;83.20;;;;;;5119559;27;20024;-79
2021/07/06 09:46:01;;;;;;;2.28;1.30;;;22.70;83.10;;;;;;5125902;27;20031;-78
2021/07/06 09:48:28;;;;;;;28.05;1.88;;;22.80;83.10;;;;;;5121277;27;20044;-74
2021/07/06 09:51:16;;;;;;;3.38;1.38;;;22.70;83.80;;;;;;5118211;27;20028;-72
2021/07/06 09:53:49;;;;;;;2.42;1.02;;;22.80;83.00;;;;;;5117476;27;20031;-72
2021/07/06 09:56:17;;;;;;;2.30;1.25;;;22.80;82.80;;;;;;5129448;27;20542;-74
2021/07/06 09:59:00;;;;;;;2.42;1.13;;;22.80;82.80;;;;;;5116256;27;20046;-74
2021/07/06 10:01:27;;;;;;;1.23;1.08;;;22.90;82.90;;;;;;5120850;27;20032;-72
2021/07/06 10:03:54;;;;;;;1.75;0.57;;;22.90;82.80;;;;;;5115788;27;20100;-72
2021/07/06 10:06:28;;;;;;;1.90;0.47;;;22.90;82.60;;;;;;5115400;27;20028;-71
2021/07/06 10:08:55;;;;;;;0.57;0.57;;;22.90;82.80;;;;;;5113511;27;20448;-71
2021/07/06 10:11:22;;;;;;;0.75;0.75;;;23.00;82.50;;;;;;5118341;27;20498;-72
2021/07/06 10:13:48;;;;;;;2.17;0.63;;;23.00;82.40;;;;;;5115336;28;20042;-71
2021/07/06 10:16:15;;;;;;;1.58;0.80;;;23.00;81.90;;;;;;5102900;28;20032;-71
2021/07/06 10:18:43;;;;;;;0.77;0.55;;;23.00;81.90;;;;;;5105674;27;20077;-72
2021/07/06 10:21:09;;;;;;;0.35;0.35;;;23.10;81.70;;;;;;5115941;27;20035;-71
2021/07/06 10:23:36;;;;;;;0.77;0.77;;;23.10;81.30;;;;;;5109364;28;20043;-72
2021/07/06 10:26:06;;;;;;;1.33;0.82;;;23.10;81.10;;;;;;5120410;27;20536;-72
2021/07/06 10:28:32;;;;;;;0.82;0.70;;;23.10;80.80;;;;;;5115216;28;20474;-72
2021/07/06 10:31:17;;;;;;;4.78;0.77;;;23.10;81.00;;;;;;5122615;27;20019;-72
2021/07/06 10:33:45;;;;;;;0.73;0.70;;;23.20;80.40;;;;;;5117771;27;20466;-72
2021/07/06 10:36:12;;;;;;;2.47;0.63;;;23.20;81.40;;;;;;5121922;27;20050;-72
2021/07/06 10:38:44;;;;;;;2.20;0.77;;;23.20;80.80;;;;;;5109888;28;20054;-73
2021/07/06 10:41:35;;;;;;;1.45;0.70;;;23.30;80.40;;;;;;5117863;27;20024;-72
2021/07/06 10:44:02;;;;;;;1.65;1.02;;;23.30;80.40;;;;;;5125371;27;20023;-72
2021/07/06 10:46:37;;;;;;;2.72;0.80;;;23.40;79.90;;;;;;5122654;27;20420;-73
2021/07/06 10:49:13;;;;;;;1.38;0.82;;;23.40;79.70;;;;;;5134481;27;20035;-73
2021/07/06 10:51:39;;;;;;;3.20;1.05;;;23.30;78.40;;;;;;5124696;27;20024;-71
2021/07/06 10:54:25;;;;;;;1.70;1.20;;;23.40;78.90;;;;;;5129179;27;20358;-71
2021/07/06 10:56:56;;;;;;;0.60;0.60;;;23.40;78.80;;;;;;5121999;27;20102;-72
2021/07/06 10:59:25;;;;;;;1.08;0.70;;;23.40;78.40;;;;;;5130754;27;20039;-71
2021/07/06 11:02:00;;;;;;;3.20;0.40;;;23.40;77.90;;;;;;5126954;27;20122;-72
2021/07/06 11:04:47;;;;;;;1.35;0.73;;;23.30;77.40;;;;;;5117751;27;20030;-72
2021/07/06 11:07:14;;;;;;;0.73;0.57;;;23.20;76.70;;;;;;5122604;27;20890;-72
2021/07/06 11:09:40;;;;;;;2.17;1.02;;;23.20;76.60;;;;;;5130021;27;20044;-72
2021/07/06 11:12:44;;;;;;;1.65;0.95;;;23.10;75.50;;;;;;5119621;27;20024;-72
2021/07/06 11:15:13;;;;;;;1.30;0.75;;;23.10;75.70;;;;;;5127971;27;20457;-72
2021/07/06 11:17:44;;;;;;;0.50;0.50;;;23.00;75.10;;;;;;5122475;27;20054;-72
2021/07/06 11:20:31;;;;;;;0.63;0.55;;;23.00;75.20;;;;;;5126062;27;20405;-72
2021/07/06 11:22:58;;;;;;;1.75;0.95;;;23.00;75.00;;;;;;5121761;27;20027;-72
2021/07/06 11:25:26;;;;;;;0.75;0.38;;;23.00;74.30;;;;;;5119820;27;20028;-72
2021/07/06 11:28:00;;;;;;;2.22;0.85;;;22.90;74.30;;;;;;5123231;27;20038;-72
2021/07/06 11:30:31;;;;;;;0.90;0.60;;;22.90;74.30;;;;;;5122430;27;20088;-72
2021/07/06 11:33:12;;;;;;;5.32;0.68;;;22.90;74.60;;;;;;5116715;27;20087;-70
2021/07/06 11:35:46;;;;;;;2.58;0.68;;;22.90;74.40;;;;;;5121159;27;20110;-71
2021/07/06 11:38:26;;;;;;;0.75;0.40;;;23.00;75.00;;;;;;5104512;28;20119;-72
2021/07/06 11:40:57;;;;;;;0.98;0.70;;;23.00;75.40;;;;;;5122546;27;20172;-71
2021/07/06 11:43:25;;;;;;;1.70;0.90;;;23.00;75.50;;;;;;5109103;28;20038;-71
2021/07/06 11:45:55;;;;;;;0.68;0.60;;;23.00;75.90;;;;;;5110436;28;20131;-71
2021/07/06 11:48:23;;;;;;;1.65;0.93;;;23.00;76.20;;;;;;5108113;28;20467;-71
2021/07/06 11:50:49;;;;;;;2.22;0.88;;;23.00;75.60;;;;;;5109363;28;20031;-71
2021/07/06 11:53:16;;;;;;;1.13;0.60;;;23.10;75.30;;;;;;5111551;27;20027;-71
2021/07/06 11:55:42;;;;;;;1.05;0.75;;;23.10;75.90;;;;;;5112405;28;20035;-71
2021/07/06 11:58:12;;;;;;;3.28;0.90;;;23.20;76.00;;;;;;5110884;28;20023;-72
2021/07/06 12:00:39;;;;;;;1.55;0.77;;;23.20;75.20;;;;;;5096749;28;20130;-71
2021/07/06 12:03:20;;;;;;;1.27;0.50;;;23.20;75.40;;;;;;5103508;28;20020;-71
2021/07/06 12:05:51;;;;;;;1.65;0.90;;;23.20;75.50;;;;;;5128650;27;20084;-71
2021/07/06 12:08:19;;;;;;;1.92;0.85;;;23.20;74.00;;;;;;5122098;28;20039;-72
2021/07/06 12:11:05;;;;;;;0.73;0.47;;;23.30;73.30;;;;;;5104168;28;20031;-72
2021/07/06 12:13:39;;;;;;;3.30;0.63;;;23.30;72.90;;;;;;5110208;28;20034;-72
2021/07/06 12:16:27;;;;;;;1.13;0.60;;;23.30;73.30;;;;;;5109823;28;20401;-72
2021/07/06 12:18:52;;;;;;;1.00;0.70;;;23.30;73.00;;;;;;5098373;28;20399;-72
2021/07/06 12:21:24;;;;;;;3.65;0.70;;;23.40;73.20;;;;;;5110581;28;20032;-72
2021/07/06 12:23:50;;;;;;;2.20;0.85;;;23.40;73.30;;;;;;5105238;28;20031;-72
2021/07/06 12:26:16;;;;;;;1.45;0.80;;;23.50;73.30;;;;;;5123386;28;20034;-72
2021/07/06 12:28:43;;;;;;;2.10;0.52;;;23.50;73.50;;;;;;5121168;28;20400;-72
2021/07/06 12:31:31;;;;;;;6.20;1.00;;;23.50;73.10;;;;;;5122958;28;20085;-72
2021/07/06 12:34:08;;;;;;;0.75;0.50;;;23.60;72.70;;;;;;5129226;28;20530;-72
2021/07/06 12:37:01;;;;;;;2.83;0.77;;;23.60;72.20;;;;;;5118279;28;20026;-72
2021/07/06 12:39:31;;;;;;;3.53;0.80;;;23.60;72.10;;;;;;5113232;28;20048;-73
2021/07/06 12:42:04;;;;;;;1.60;0.57;;;23.50;71.60;;;;;;5121176;28;20084;-72
2021/07/06 12:44:46;;;;;;;0.80;0.47;;;23.60;72.00;;;;;;5118047;28;20028;-72
2021/07/06 12:47:26;;;;;;;1.33;0.60;;;23.60;72.00;;;;;;5120633;28;20360;-72
2021/07/06 12:49:56;;;;;;;3.35;0.57;;;23.60;70.90;;;;;;5115989;28;20486;-72